createdAt,value
2022-10-28T00:00:14.124Z,17.37
2022-10-28T00:02:41.901Z,17.33
2022-10-28T00:05:09.259Z,17.09
2022-10-28T00:07:36.116Z,16.84
2022-10-28T00:10:03.579Z,16.82
2022-10-28T00:12:36.349Z,16.89
2022-10-28T00:15:05.659Z,17.09
2022-10-28T00:17:32.836Z,17.25
2022-10-28T00:19:59.936Z,17.09
2022-10-28T00:22:27.580Z,17.56
2022-10-28T00:24:54.456Z,17.45
2022-10-28T00:27:21.128Z,17.46
2022-10-28T00:29:47.881Z,17.12
2022-10-28T00:32:14.637Z,17.43
2022-10-28T00:34:41.550Z,17.20
2022-10-28T00:37:08.263Z,17.32
2022-10-28T00:39:34.940Z,17.48
2022-10-28T00:42:04.746Z,17.34
2022-10-28T00:44:49.538Z,17.33
2022-10-28T00:47:37.605Z,16.98
2022-10-28T00:50:15.024Z,16.90
2022-10-28T00:52:46.419Z,16.85
2022-10-28T00:55:16.311Z,17.12
2022-10-28T00:57:44.964Z,17.11
2022-10-28T01:00:12.526Z,17.03
2022-10-28T01:02:49.048Z,17.24
2022-10-28T01:05:20.752Z,17.27
2022-10-28T01:07:48.240Z,17.24
2022-10-28T01:10:15.494Z,17.11
2022-10-28T01:12:56.605Z,17.08
2022-10-28T01:15:45.252Z,16.94
2022-10-28T01:18:27.340Z,16.87
2022-10-28T01:20:56.996Z,16.91
2022-10-28T01:23:41.846Z,16.86
2022-10-28T01:26:17.679Z,16.81
2022-10-28T01:29:17.269Z,16.83
2022-10-28T01:31:52.719Z,16.90
2022-10-28T01:34:31.626Z,16.89
2022-10-28T01:36:58.283Z,17.05
2022-10-28T01:39:50.474Z,17.27
2022-10-28T01:42:26.310Z,17.33
2022-10-28T01:45:17.119Z,17.37
2022-10-28T01:48:00.510Z,17.15
2022-10-28T01:50:37.171Z,17.11
2022-10-28T01:53:09.561Z,17.17
2022-10-28T01:55:41.391Z,17.40
2022-10-28T01:58:10.931Z,17.23
2022-10-28T02:00:40.970Z,16.94
2022-10-28T02:03:09.666Z,16.92
2022-10-28T02:05:39.331Z,16.84
2022-10-28T02:08:18.258Z,17.13
2022-10-28T02:10:57.814Z,17.04
2022-10-28T02:13:36.027Z,17.23
2022-10-28T02:16:18.010Z,16.98
2022-10-28T02:19:03.485Z,16.89
2022-10-28T02:21:42.759Z,16.79
2022-10-28T02:24:24.301Z,17.01
2022-10-28T02:27:15.620Z,17.19
2022-10-28T02:30:09.236Z,17.10
2022-10-28T02:32:42.503Z,16.91
2022-10-28T02:35:16.518Z,16.88
2022-10-28T02:37:46.603Z,16.96
2022-10-28T02:40:19.104Z,17.03
2022-10-28T02:42:52.465Z,16.99
2022-10-28T02:45:24.560Z,17.18
2022-10-28T02:47:57.556Z,17.14
2022-10-28T02:50:33.018Z,17.49
2022-10-28T02:53:05.754Z,17.28
2022-10-28T02:55:45.793Z,17.30
2022-10-28T02:58:14.236Z,17.38
2022-10-28T03:00:45.560Z,17.50
2022-10-28T03:03:14.149Z,17.41
2022-10-28T03:05:48.459Z,17.52
2022-10-28T03:08:16.782Z,17.30
2022-10-28T03:10:43.496Z,17.48
2022-10-28T03:13:10.200Z,17.37
2022-10-28T03:15:36.914Z,17.51
2022-10-28T03:18:03.715Z,17.37
2022-10-28T03:20:30.427Z,17.28
2022-10-28T03:22:57.938Z,17.30
2022-10-28T03:25:24.648Z,17.28
2022-10-28T03:27:51.387Z,17.38
2022-10-28T03:30:19.033Z,17.37
2022-10-28T03:32:45.774Z,17.29
2022-10-28T03:35:12.814Z,17.49
2022-10-28T03:37:43.656Z,17.63
2022-10-28T03:40:11.571Z,17.40
2022-10-28T03:42:42.354Z,17.44
2022-10-28T03:45:10.068Z,17.65
2022-10-28T03:47:37.315Z,17.58
2022-10-28T03:50:04.557Z,17.62
2022-10-28T03:52:31.337Z,17.65
2022-10-28T03:54:58.318Z,17.50
2022-10-28T03:57:25.075Z,17.24
2022-10-28T03:59:51.757Z,17.18
2022-10-28T04:02:18.642Z,17.29
2022-10-28T04:04:45.464Z,17.70
2022-10-28T04:07:12.230Z,17.48
2022-10-28T04:09:38.932Z,17.59
2022-10-28T04:12:06.632Z,17.62
2022-10-28T04:14:33.342Z,17.52
2022-10-28T04:17:00.024Z,17.35
2022-10-28T04:19:26.738Z,17.53
2022-10-28T04:21:53.576Z,17.50
2022-10-28T04:24:20.319Z,17.25
2022-10-28T04:26:47.144Z,17.31
2022-10-28T04:29:13.869Z,17.49
2022-10-28T04:31:40.613Z,17.32
2022-10-28T04:34:07.248Z,17.52
2022-10-28T04:36:33.980Z,17.63
2022-10-28T04:39:00.648Z,17.55
2022-10-28T04:41:27.437Z,17.53
2022-10-28T04:43:56.226Z,17.41
2022-10-28T04:46:22.917Z,17.25
2022-10-28T04:48:49.613Z,17.26
2022-10-28T04:51:16.353Z,17.32
2022-10-28T04:53:43.088Z,17.15
2022-10-28T04:56:09.936Z,17.25
2022-10-28T04:58:36.739Z,17.01
2022-10-28T05:01:10.574Z,16.93
2022-10-28T05:03:37.356Z,16.86
2022-10-28T05:06:04.187Z,16.81
2022-10-28T05:08:31.103Z,17.18
2022-10-28T05:10:57.844Z,17.17
2022-10-28T05:13:24.668Z,16.96
2022-10-28T05:15:51.346Z,16.83
2022-10-28T05:18:18.330Z,17.15
2022-10-28T05:20:45.407Z,16.83
2022-10-28T05:23:12.248Z,16.70
2022-10-28T05:25:39.016Z,16.76
2022-10-28T05:28:06.382Z,16.88
2022-10-28T05:30:33.322Z,17.24
2022-10-28T05:33:02.271Z,17.21
2022-10-28T05:35:30.248Z,16.86
2022-10-28T05:37:57.755Z,16.80
2022-10-28T05:40:24.838Z,17.01
2022-10-28T05:42:51.855Z,16.90
2022-10-28T05:45:19.131Z,16.85
2022-10-28T05:47:47.414Z,16.91
2022-10-28T05:50:16.248Z,16.89
2022-10-28T05:52:52.637Z,16.90
2022-10-28T05:55:20.901Z,16.99
2022-10-28T05:57:48.835Z,16.92
2022-10-28T06:00:17.414Z,16.96
2022-10-28T06:02:46.108Z,16.88
2022-10-28T06:05:13.643Z,16.85
2022-10-28T06:07:41.199Z,16.94
2022-10-28T06:10:10.742Z,16.94
2022-10-28T06:12:37.642Z,16.99
2022-10-28T06:15:04.735Z,17.10
2022-10-28T06:17:31.296Z,17.01
2022-10-28T06:19:58.101Z,17.11
2022-10-28T06:22:24.787Z,17.21
2022-10-28T06:24:51.523Z,17.34
2022-10-28T06:27:18.321Z,17.28
2022-10-28T06:29:45.057Z,17.27
2022-10-28T06:32:11.712Z,17.29
2022-10-28T06:34:38.448Z,17.16
2022-10-28T06:37:05.729Z,16.96
2022-10-28T06:39:32.944Z,17.00
2022-10-28T06:41:59.789Z,17.09
2022-10-28T06:44:26.639Z,17.15
2022-10-28T06:46:55.834Z,17.38
2022-10-28T06:49:22.673Z,17.25
2022-10-28T06:51:50.069Z,17.34
2022-10-28T06:54:16.766Z,17.33
2022-10-28T06:56:49.383Z,17.28
2022-10-28T06:59:21.261Z,17.37
2022-10-28T07:01:52.482Z,17.38
2022-10-28T07:04:23.798Z,17.29
2022-10-28T07:06:58.886Z,17.27
2022-10-28T07:09:26.868Z,17.39
2022-10-28T07:11:55.300Z,17.21
2022-10-28T07:14:22.691Z,17.14
2022-10-28T07:16:49.542Z,17.44
2022-10-28T07:19:20.278Z,17.36
2022-10-28T07:21:49.198Z,17.45
2022-10-28T07:24:16.007Z,17.23
2022-10-28T07:26:42.789Z,17.07
2022-10-28T07:29:09.557Z,17.23
2022-10-28T07:31:36.417Z,17.28
2022-10-28T07:34:03.254Z,17.29
2022-10-28T07:36:30.034Z,17.30
2022-10-28T07:38:56.909Z,17.36
2022-10-28T07:41:24.026Z,17.30
2022-10-28T07:43:50.906Z,17.20
2022-10-28T07:46:18.613Z,17.40
2022-10-28T07:48:45.749Z,17.42
2022-10-28T07:51:14.764Z,17.63
2022-10-28T07:53:42.129Z,17.52
2022-10-28T07:56:14.385Z,17.67
2022-10-28T07:58:42.678Z,17.74
2022-10-28T08:01:11.601Z,17.77
2022-10-28T08:03:39.358Z,17.77
2022-10-28T08:06:12.335Z,17.64
2022-10-28T08:08:39.695Z,17.75
2022-10-28T08:11:27.453Z,17.79
2022-10-28T08:13:55.813Z,17.83
2022-10-28T08:16:22.837Z,17.95
2022-10-28T08:18:49.545Z,17.83
2022-10-28T08:21:16.418Z,17.98
2022-10-28T08:23:46.727Z,17.94
2022-10-28T08:26:15.235Z,18.14
2022-10-28T08:28:42.587Z,18.03
2022-10-28T08:31:10.254Z,18.19
2022-10-28T08:33:38.909Z,18.32
2022-10-28T08:36:07.236Z,18.13
2022-10-28T08:38:33.894Z,18.07
2022-10-28T08:41:31.205Z,18.12
2022-10-28T08:44:45.152Z,18.16
2022-10-28T08:47:39.338Z,18.37
2022-10-28T08:50:14.761Z,18.25
2022-10-28T08:53:05.909Z,18.28
2022-10-28T08:55:39.413Z,18.27
2022-10-28T08:58:19.859Z,18.35
2022-10-28T09:01:02.370Z,18.36
2022-10-28T09:03:49.007Z,18.46
2022-10-28T09:06:16.730Z,18.38
2022-10-28T09:08:48.483Z,18.27
2022-10-28T09:11:37.181Z,18.51
2022-10-28T09:14:28.470Z,18.56
2022-10-28T09:17:15.654Z,18.51
2022-10-28T09:20:11.340Z,18.44
2022-10-28T09:22:57.748Z,18.61
2022-10-28T09:25:50.663Z,18.48
2022-10-28T09:28:49.057Z,18.56
2022-10-28T09:31:42.831Z,18.68
2022-10-28T09:34:55.026Z,18.67
2022-10-28T09:37:32.487Z,18.66
2022-10-28T09:40:21.777Z,18.80
2022-10-28T09:42:54.749Z,19.12
2022-10-28T09:45:29.361Z,19.27
2022-10-28T09:48:05.594Z,19.49
2022-10-28T09:50:33.415Z,19.60
2022-10-28T09:53:21.259Z,19.62
2022-10-28T09:55:51.779Z,19.62
2022-10-28T09:58:19.979Z,19.55
2022-10-28T10:00:49.248Z,19.66
2022-10-28T10:03:18.183Z,19.68
2022-10-28T10:05:54.158Z,19.70
2022-10-28T10:08:29.538Z,19.72
2022-10-28T10:11:07.666Z,19.61
2022-10-28T10:13:44.694Z,19.82
2022-10-28T10:16:23.868Z,19.88
2022-10-28T10:18:57.902Z,19.72
2022-10-28T10:21:42.319Z,19.85
2022-10-28T10:24:25.714Z,19.82
2022-10-28T10:26:53.960Z,19.63
2022-10-28T10:29:22.224Z,19.64
2022-10-28T10:32:05.347Z,19.57
2022-10-28T10:34:33.779Z,19.67
2022-10-28T10:39:37.924Z,19.79
2022-10-28T10:42:16.424Z,19.77
2022-10-28T10:44:47.058Z,19.94
2022-10-28T10:47:18.415Z,20.17
2022-10-28T10:49:45.084Z,20.23
2022-10-28T10:52:22.742Z,20.34
2022-10-28T10:55:01.872Z,20.36
2022-10-28T10:57:31.811Z,20.44
2022-10-28T11:00:06.475Z,20.51
2022-10-28T11:02:41.874Z,20.60
2022-10-28T11:05:12.995Z,20.56
2022-10-28T11:07:48.950Z,20.58
2022-10-28T11:10:29.862Z,20.70
2022-10-28T11:13:26.042Z,20.73
2022-10-28T11:16:01.033Z,20.83
2022-10-28T11:18:31.588Z,20.85
2022-10-28T11:21:10.806Z,20.82
2022-10-28T11:24:16.959Z,20.81
2022-10-28T11:27:10.554Z,20.94
2022-10-28T11:29:37.852Z,21.08
2022-10-28T11:32:11.995Z,21.00
2022-10-28T11:35:08.601Z,21.12
2022-10-28T11:37:57.506Z,20.99
2022-10-28T11:40:55.703Z,20.93
2022-10-28T11:43:25.796Z,20.93
2022-10-28T11:46:05.304Z,21.06
2022-10-28T11:48:56.758Z,20.99
2022-10-28T11:51:37.073Z,21.04
2022-10-28T11:54:33.368Z,21.04
2022-10-28T11:57:29.690Z,20.81
2022-10-28T12:00:27.117Z,20.99
2022-10-28T12:03:36.273Z,21.01
2022-10-28T12:06:28.193Z,21.01
2022-10-28T12:09:16.875Z,20.99
2022-10-28T12:12:13.282Z,20.99
2022-10-28T12:15:05.226Z,21.12
2022-10-28T12:17:52.541Z,21.11
2022-10-28T12:20:46.323Z,21.10
2022-10-28T12:23:21.166Z,21.08
2022-10-28T12:25:54.832Z,21.20
2022-10-28T12:28:31.631Z,21.32
2022-10-28T12:30:58.788Z,21.37
2022-10-28T12:33:45.691Z,21.21
2022-10-28T12:36:46.815Z,21.27
2022-10-28T12:39:28.892Z,21.21
2022-10-28T12:42:21.379Z,21.17
2022-10-28T12:44:54.039Z,21.40
2022-10-28T12:47:51.127Z,21.51
2022-10-28T12:50:26.177Z,21.37
2022-10-28T12:53:15.975Z,21.51
2022-10-28T12:55:52.353Z,21.37
2022-10-28T12:58:27.758Z,21.33
2022-10-28T13:01:18.916Z,21.29
2022-10-28T13:03:50.814Z,21.46
2022-10-28T13:06:51.798Z,21.64
2022-10-28T13:09:39.542Z,21.69
2022-10-28T13:12:38.191Z,21.58
2022-10-28T13:15:30.835Z,21.52
2022-10-28T13:18:27.849Z,21.49
2022-10-28T13:21:13.318Z,21.59
2022-10-28T13:24:11.450Z,21.53
2022-10-28T13:26:43.485Z,21.53
2022-10-28T13:29:24.167Z,21.69
2022-10-28T13:31:52.322Z,21.91
2022-10-28T13:34:22.595Z,21.86
2022-10-28T13:37:03.283Z,21.98
2022-10-28T13:39:31.640Z,22.03
2022-10-28T13:42:23.192Z,21.98
2022-10-28T13:44:49.767Z,21.94
2022-10-28T13:47:16.510Z,22.09
2022-10-28T13:50:08.499Z,22.02
2022-10-28T13:52:40.511Z,21.88
2022-10-28T13:55:22.682Z,21.94
2022-10-28T13:58:00.756Z,21.96
2022-10-28T14:00:37.931Z,22.10
2022-10-28T14:03:23.090Z,22.19
2022-10-28T14:05:56.037Z,22.23
2022-10-28T14:08:33.177Z,22.48
2022-10-28T14:11:11.888Z,22.49
2022-10-28T14:13:59.290Z,22.34
2022-10-28T14:16:31.533Z,22.23
2022-10-28T14:19:09.906Z,22.21
2022-10-28T14:21:59.063Z,22.31
2022-10-28T14:24:33.219Z,22.52
2022-10-28T14:27:06.356Z,22.49
2022-10-28T14:29:43.310Z,22.36
2022-10-28T14:32:31.967Z,22.30
2022-10-28T14:35:03.289Z,22.33
2022-10-28T14:38:11.956Z,22.46
2022-10-28T14:40:50.941Z,22.43
2022-10-28T14:43:33.299Z,22.35
2022-10-28T14:46:11.004Z,22.35
2022-10-28T14:48:48.462Z,22.34
2022-10-28T14:51:19.545Z,22.39
2022-10-28T14:53:47.117Z,22.32
2022-10-28T14:56:31.302Z,22.22
2022-10-28T14:59:26.467Z,22.06
2022-10-28T15:02:02.459Z,22.04
2022-10-28T15:04:30.307Z,21.91
2022-10-28T15:06:59.857Z,21.98
2022-10-28T15:09:35.426Z,21.89
2022-10-28T15:12:06.646Z,21.79
2022-10-28T15:14:49.301Z,21.75
2022-10-28T15:17:23.268Z,21.65
2022-10-28T15:19:56.844Z,21.75
2022-10-28T15:22:28.048Z,21.58
2022-10-28T15:25:00.461Z,21.54
2022-10-28T15:27:38.964Z,21.44
2022-10-28T15:30:25.392Z,21.34
2022-10-28T15:32:54.025Z,21.66
2022-10-28T15:35:26.921Z,21.76
2022-10-28T15:38:00.127Z,21.47
2022-10-28T15:40:28.617Z,21.33
2022-10-28T15:43:05.625Z,21.27
2022-10-28T15:45:39.707Z,21.51
2022-10-28T15:48:14.972Z,21.62
2022-10-28T15:50:41.929Z,21.33
2022-10-28T15:53:11.487Z,21.18
2022-10-28T15:58:35.784Z,21.48
2022-10-28T16:01:02.897Z,21.34
2022-10-28T16:03:48.243Z,21.23
2022-10-28T16:06:36.187Z,21.08
2022-10-28T16:09:12.570Z,21.29
2022-10-28T16:11:45.500Z,20.99
2022-10-28T16:14:34.804Z,21.16
2022-10-28T16:17:23.277Z,21.31
2022-10-28T16:19:55.355Z,21.21
2022-10-28T16:22:26.791Z,20.96
2022-10-28T16:24:55.645Z,20.92
2022-10-28T16:27:27.872Z,21.15
2022-10-28T16:29:55.211Z,21.16
2022-10-28T16:32:52.373Z,21.15
2022-10-28T16:35:27.402Z,21.09
2022-10-28T16:37:56.988Z,21.26
2022-10-28T16:40:49.893Z,21.14
2022-10-28T16:43:19.416Z,21.13
2022-10-28T16:45:52.581Z,21.10
2022-10-28T16:48:21.924Z,20.98
2022-10-28T16:50:57.048Z,21.02
2022-10-28T16:53:25.646Z,20.84
2022-10-28T16:56:00.264Z,20.85
2022-10-28T16:58:29.153Z,20.81
2022-10-28T17:00:59.613Z,20.84
2022-10-28T17:03:27.002Z,20.77
2022-10-28T17:05:54.408Z,20.66
2022-10-28T17:08:42.075Z,20.61
2022-10-28T17:11:13.751Z,20.71
2022-10-28T17:13:40.619Z,20.59
2022-10-28T17:16:07.591Z,20.58
2022-10-28T17:18:34.274Z,20.59
2022-10-28T17:21:02.320Z,20.51
2022-10-28T17:23:29.606Z,20.60
2022-10-28T17:26:00.902Z,20.88
2022-10-28T17:28:27.909Z,20.72
2022-10-28T17:31:01.903Z,20.49
2022-10-28T17:33:28.571Z,20.39
2022-10-28T17:35:55.149Z,20.34
2022-10-28T17:38:21.721Z,20.27
2022-10-28T17:40:55.359Z,20.33
2022-10-28T17:43:22.899Z,20.39
2022-10-28T17:45:50.353Z,20.37
2022-10-28T17:48:17.320Z,20.50
2022-10-28T17:50:45.157Z,20.29
2022-10-28T17:53:11.993Z,20.27
2022-10-28T17:55:42.230Z,20.15
2022-10-28T17:58:09.944Z,20.30
2022-10-28T18:00:37.172Z,20.36
2022-10-28T18:03:06.488Z,20.18
2022-10-28T18:05:36.052Z,20.27
2022-10-28T18:08:06.298Z,20.19
2022-10-28T18:10:33.439Z,20.24
2022-10-28T18:13:00.595Z,20.26
2022-10-28T18:15:27.705Z,20.06
2022-10-28T18:17:54.557Z,20.01
2022-10-28T18:20:22.721Z,19.97
2022-10-28T18:22:49.424Z,20.01
2022-10-28T18:25:16.433Z,20.31
2022-10-28T18:27:44.135Z,20.19
2022-10-28T18:30:11.264Z,20.03
2022-10-28T18:32:38.207Z,19.94
2022-10-28T18:35:05.340Z,20.07
2022-10-28T18:37:32.187Z,19.93
2022-10-28T18:39:58.876Z,19.84
2022-10-28T18:42:25.885Z,19.91
2022-10-28T18:44:58.406Z,19.88
2022-10-28T18:47:25.734Z,19.94
2022-10-28T18:49:52.648Z,19.98
2022-10-28T18:52:19.321Z,20.10
2022-10-28T18:54:46.058Z,19.93
2022-10-28T18:57:12.726Z,19.92
2022-10-28T19:00:12.614Z,20.08
2022-10-28T19:02:28.398Z,19.93
2022-10-28T19:04:55.424Z,19.98
2022-10-28T19:07:22.221Z,20.04
2022-10-28T19:09:48.849Z,20.01
2022-10-28T19:12:15.573Z,20.12
2022-10-28T19:14:42.196Z,19.95
2022-10-28T19:17:08.964Z,19.91
2022-10-28T19:19:38.482Z,20.02
2022-10-28T19:22:08.055Z,19.84
2022-10-28T19:24:35.019Z,19.73
2022-10-28T19:27:01.809Z,19.61
2022-10-28T19:29:28.539Z,19.59
2022-10-28T19:31:55.225Z,19.56
2022-10-28T19:34:21.869Z,19.61
2022-10-28T19:36:48.603Z,19.60
2022-10-28T19:39:15.255Z,19.70
2022-10-28T19:41:43.254Z,19.62
2022-10-28T19:44:10.018Z,19.51
2022-10-28T19:46:36.980Z,19.46
2022-10-28T19:49:05.812Z,19.42
2022-10-28T19:51:39.116Z,19.39
2022-10-28T19:54:13.135Z,19.41
2022-10-28T19:56:40.087Z,19.50
2022-10-28T19:59:07.357Z,19.46
2022-10-28T20:01:37.071Z,19.43
2022-10-28T20:04:04.483Z,19.38
2022-10-28T20:06:33.604Z,19.32
2022-10-28T20:09:00.640Z,19.38
2022-10-28T20:11:33.023Z,19.53
2022-10-28T20:14:11.911Z,19.31
2022-10-28T20:16:42.313Z,19.25
2022-10-28T20:19:09.223Z,19.39
2022-10-28T20:21:37.242Z,19.47
2022-10-28T20:24:06.082Z,19.34
2022-10-28T20:26:37.175Z,19.34
2022-10-28T20:29:09.387Z,19.45
2022-10-28T20:31:39.378Z,19.32
2022-10-28T20:34:07.427Z,19.17
2022-10-28T20:36:44.053Z,19.35
2022-10-28T20:39:17.784Z,19.35
2022-10-28T20:41:48.323Z,19.42
2022-10-28T20:44:15.675Z,19.10
2022-10-28T20:46:45.187Z,19.03
2022-10-28T20:49:16.872Z,19.04
2022-10-28T20:51:44.248Z,18.96
2022-10-28T20:54:11.874Z,18.98
2022-10-28T20:56:44.586Z,19.01
2022-10-28T20:59:16.163Z,19.23
2022-10-28T21:01:44.126Z,19.25
2022-10-28T21:04:11.734Z,19.28
2022-10-28T21:06:41.752Z,19.11
2022-10-28T21:09:12.422Z,18.92
2022-10-28T21:11:40.582Z,18.80
2022-10-28T21:14:13.088Z,18.75
2022-10-28T21:16:39.885Z,18.85
2022-10-28T21:19:12.568Z,19.22
2022-10-28T21:21:44.957Z,19.07
2022-10-28T21:24:15.196Z,18.91
2022-10-28T21:26:47.228Z,18.79
2022-10-28T21:29:16.611Z,18.95
2022-10-28T21:31:43.569Z,19.04
2022-10-28T21:34:10.681Z,18.88
2022-10-28T21:36:39.422Z,18.78
2022-10-28T21:39:10.667Z,18.81
2022-10-28T21:41:38.382Z,18.86
2022-10-28T21:44:06.213Z,18.77
2022-10-28T21:46:32.846Z,18.80
2022-10-28T21:49:00.812Z,18.77
2022-10-28T21:51:27.516Z,18.71
2022-10-28T21:53:54.111Z,18.67
2022-10-28T21:56:20.840Z,18.57
2022-10-28T21:58:49.588Z,18.52
2022-10-28T22:01:19.260Z,18.61
2022-10-28T22:03:46.283Z,18.48
2022-10-28T22:06:13.277Z,18.41
2022-10-28T22:08:39.987Z,18.51
2022-10-28T22:11:09.819Z,18.54
2022-10-28T22:13:36.442Z,18.53
2022-10-28T22:16:06.415Z,18.55
2022-10-28T22:18:35.279Z,18.63
2022-10-28T22:21:13.735Z,18.50
2022-10-28T22:23:40.734Z,18.46
2022-10-28T22:26:09.458Z,18.42
2022-10-28T22:28:36.343Z,18.41
2022-10-28T22:31:10.013Z,18.44
2022-10-28T22:33:37.284Z,18.38
2022-10-28T22:36:09.905Z,18.36
2022-10-28T22:38:36.622Z,18.38
2022-10-28T22:41:17.625Z,18.48
2022-10-28T22:43:46.689Z,18.38
2022-10-28T22:46:15.137Z,18.28
2022-10-28T22:48:41.910Z,18.22
2022-10-28T22:51:11.923Z,18.36
2022-10-28T22:53:39.838Z,18.44
2022-10-28T22:56:08.524Z,18.32
2022-10-28T22:58:35.412Z,18.22
2022-10-28T23:01:07.171Z,18.15
2022-10-28T23:03:42.222Z,18.33
2022-10-28T23:06:10.339Z,18.25
2022-10-28T23:08:38.973Z,18.46
2022-10-28T23:11:06.373Z,18.70
2022-10-28T23:13:33.306Z,18.59
2022-10-28T23:16:07.977Z,18.38
2022-10-28T23:18:35.402Z,18.30
2022-10-28T23:21:12.177Z,18.17
2022-10-28T23:23:39.892Z,18.16
2022-10-28T23:26:07.602Z,18.22
2022-10-28T23:28:34.219Z,18.18
2022-10-28T23:31:02.289Z,18.05
2022-10-28T23:33:30.278Z,18.10
2022-10-28T23:35:58.415Z,18.16
2022-10-28T23:38:25.300Z,18.03
2022-10-28T23:41:02.058Z,18.00
2022-10-28T23:43:31.925Z,17.91
2022-10-28T23:46:01.167Z,17.87
2022-10-28T23:48:29.405Z,17.82
2022-10-28T23:50:57.521Z,17.83
2022-10-28T23:53:26.047Z,17.91
2022-10-28T23:55:55.316Z,18.17
2022-10-28T23:58:22.680Z,18.03
